Timeline UpdatesTrip UpdatesNews PostsPvt PostsTravel TipsAdmin PostsConv PostsFollowed PostsChat RequestsBlog PostsPNR Posts

Disclaimer
Search
 
 
Tue Sep 16, 2014 23:01:26 ISTHomeTrainsΣChainsAtlasPNRForumGalleryNewsFAQTripsMembersLoginFeedback
No Recent News for this Train
Other Trains in the News **new
Latest...
Temporary Stop at Vindhyachal (BDL) for 2 min from 31/3/14-11/4/14 #1040164. ***Temporary Augmentation of 1 3AC coach from 4/4/14-27/6/14 #1043381
Wed Apr 02, 2014 (11:27PM)
⇐ Return Journey: Train# 15648

15647/Mumbai LTT-Guwahati Weekly Express

Time-Table HAS CHANGED.
Sep 03 (4:35PM)
Change Departure Station:
Change Arrival Station:
Post a Train Travel TipPost a Train Travel Tip **new
Post a Comment/Question/Picture/VideoPost a Comment/Question/Picture/Video
Pantry/Catering
✓ Pantry Car Avbl
✓ Catering Avbl
RSA - Rake Sharing
Rake/Coach Composition
2A-1; 3A-3; SL-12; GEN-3; PC-1; SLR-2 :: 22 COACH
Loco
ET-GHY =>ET WDMx
News    PNR    Forum    Time-Table    Availability    Fare Chart    Map    Arr/Dep History    Trips    Gallery    ΣChains    X/O    Timeline    
Travel Time: 49h 50m    49 halts    Distance: 2575 km    Avg Speed: 51 km/hr
Type: Mail/Express
Zone: NFR/Northeast Frontier
Departs @ 11:10 (Avg 23m late)
Platform# 1
     F 
Devlali/DVL 
Arrives @ 13:00 +2 nights (Avg 59m late)
Platform# ???
S      
Guwahati/GHY 

49 halts. 401 intermediate Stations between Devlali and Guwahati

Show ALL intermediate Stations  Show Old Time-Table

#CodeStation NameX/OArrivesAvgDepartsAvgHaltPFDay#KmSpeedElevZoneAddress
1LTTMumbai Lokmanya Tilak Terminus (5)  -08:05+051-163.4737mCRMumbai - 400089, Maharashtra
2KYNKalyan Junction (8)X  08:35+1908:40+185m41-126.74710mCRKalyan 421301, Maharashtra
3IGPIgatpuri (4)X10:35 10:25+210:40 10:30+85m21-44.971589mCRIgatpuri 422403, Maharashtra
4DVL»Devlali (3)»X  11:08+2311:10+232m110.023561mCRDist. Nashik 422401, Maharashtra
5NKNasik Road (3)  11:28 11:25+1411:30+162 5m115.797563mCRNashik 422101, Maharashtra
6MMRManmad Junction (6)  12:25 12:15+1212:30 12:20+135m1178.585580mCRManmad 423104, Maharashtra
7BSLBhusaval Junction (8)X  14:45 14:30+1614:55 14:40+2210m--1262.776208mCRBhusaval 425201, Maharashtra
8BAUBurhanpur (2)  15:38 15:23+3915:40 15:25+392m21317.234269mCRBurhanpur, Madhya Pradesh
9KNWKhandwa Junction (5)  17:35 17:25+417:40 17:30+55m--1386.195310mCRKhandwa, Madhya Pradesh
10HDHarda (3)  18:38+2218:40+222m--1493.757289mWCRHarda, Madhya Pradesh
11ETItarsi Junction (7)X20:00+520:10+1910m--1569.572329mWCRItarsi 461111, Madhya Pradesh
12PPIPipariya (3)  21:06+3921:08+392m--1636.781338mWCRPiparia, Madhya Pradesh
13JBPJabalpur Junction (4)X  23:20+4123:30+4310m41814.578416mWCRJabalpur, Madhya Pradesh
14KTEKatni Junction (6)X  00:40+4700:45+495m--2905.374387mWCRKatni, Madhya Pradesh
15STASatna Junction (3)XO  02:10 02:05+4402:20 02:15+4610m--21003.747322mWCRSatna, Madhya Pradesh
16COIChheoki Junction (3)  06:05 05:50+1106:10 05:55+165m--21173.78096mNCRDist.-Allahabad, Uttar Pradesh
17MZPMirzapur (3)X  07:10 06:55+2507:15 07:00+265m--21254.13388mNCRMirzapur, Uttar Pradesh
18MGSMughal Sarai Junction (8)  08:55+809:10+815m--21317.37583mECRMughalsarai 232101, Uttar Pradesh
19DLNDildarnagar Junction (2)  09:56+1709:58+172m--21375.08072mECRDildarnagar, Uttar Pradesh
20BXRBuxar (3)  10:25+1810:27+202m--21411.28967mECRBuxar, Bihar
21DUREDumraon (3)  10:38+2710:40+272m--21427.58970mECRDumraon, Bihar
22ARAAra Junction (3)  11:19 11:15+2711:21 11:17+272m--21479.77963mECRarrah( 06182-233411), Bihar
23DNRDanapur (5)X  11:47+1:0311:57+1:1710m--21519.21158mECRKhagaul, Bihar
24PNBEPatna Junction (10)X  12:50+5113:00+1:0910m821528.63557mECRPatna 800001, Bihar
25PNCPatna Saheb (3)  13:17+1:5113:19+1:532m--21538.54359mECRPatna 800008, Bihar
26FUTFatwa (6)  13:36+1:4313:38+1:492m--21550.76353mECRPatna, Bihar
27KOOKhusropur (2)  13:46+1:5213:48+1:582m--21559.26252mECRPatna, Bihar
28BKPBakhtiyarpur Junction (5)  14:02+2:1314:04+2:262m--21573.76151mECRPatna, Bihar
29BARHBarh (3)  14:22+2:3114:24+2:312m--21592.04349mECRBarh, Bihar
30MKAMokama Junction (4)X  15:00+2:2315:05+2:205m--21617.95648mECRPatna, Bihar
31HTZHathidah Junction (2)  15:14+2:2215:16+2:222m121626.36350mECRMusahari, Bihar
32BRYABarhiya (3)  15:25+2:2615:27+2:262m--21635.63547mECRBarahiya, Bihar
33LKRLuckeesarai Junction (2)  15:53+2:1115:55+2:112m--21650.7852mECRLakhisarai, Bihar
34KIULKiul Junction (5)X  16:05+1:3016:12+1:327m--21652.15153mECRDist. Lakhisarai, Bihar
35AHAAbhaipur (3)  16:39+2:2316:41+2:232m--21675.14252mERAbhaipur, Bihar
36JMPJamalpur Junction (4)X  17:12+2:1317:27+2:1015m--21696.96159mERJamalpur 06344-243101, Bihar
37BUPBariarpur (3)  17:38+2:2317:40+2:232m--21708.15442mERMunger, Bihar
38SGGSultanGanj (3)  18:00+2:2118:02+2:222m--21726.04542mERSultanganj, Bihar
39BGPBhagalpur Junction (6)  18:35+1:4718:50+1:4515m--21750.96949mERBhagalpur, Bihar
40CLGKahalgaon (2)  19:16+2:2319:18+2:232m121781.03944mERBhagalpur, Bihar
41SBGSahibganj Junction (3)  20:25+2:1520:35+2:1310m121824.94538mERSahibganj, Jharkhand
42BHWBarharwa Junction (3)  21:48+2:0721:50+2:092m221879.34036mERBarharwa, Jharkhand
43NFKNew Farakka Junction (3)  22:17+2:1022:19+2:102m221897.33532mERDist - Murshidabad, West Bengal
44MLDTMalda Town (5)X  23:20+2:0623:35+2:0415m--21932.47430mERDist - Malda, West Bengal
45KNEKishanGanj (3)  01:35+2:0401:40+2:045m--32080.65052mNFRKishanganj, Bihar
46NJPNew Jalpaiguri Junction (8)X  03:25+1:5603:40+1:5015m--32167.952114mNFRCity-Siliguri . Dist-Jalpaiguri, West Bengal
47DQGDhupguri (2)  05:00 04:55+2:0805:05 05:00+2:095m--32233.26075mNFRDist - Jalpaiguri, West Bengal
48NCBNew Cooch Behar Junction (5)  06:05 06:00+2:0106:10 06:05+2:035m--32293.45647mNFRDist : Cooch Behar-736101, West Bengal
49NOQNew Alipurduar (2)  06:35 06:25+1:5806:40 06:30+1:595m--32312.04948mNFRDist - Alipurduar - 736121, West Bengal
50NBQNew Bongaigaon Junction (4)  08:40+1:3408:50+1:3710m--32418.74658mNFR783381., Assam
51BPRDBarpeta Road  09:52 09:47+1:3909:57 09:52+1:395m--32462.84749mNFRHowli, Assam
52RNYRangiya Junction (5)  11:15+1:3111:25+1:2710m--32527.73858mNFRRangia, Assam
53KYQKamakhya Junction (4)X  12:30+1:1512:35+1:165m--32568.31755mNFRDist - KAMRUP, Assam
54GHY•Guwahati (7)•  13:00+59---32575.3-60mNFRGuwahati, Assam
Scroll to Top
Scroll to Bottom